sensor_id;sensor_type;location;lat;lon;timestamp;temperature;humidity
3644;DHT22;1838;50.742;7.158;2022-11-15T00:00:51;12.20;99.90
3644;DHT22;1838;50.742;7.158;2022-11-15T00:03:19;12.20;99.90
3644;DHT22;1838;50.742;7.158;2022-11-15T00:05:45;12.20;99.90
3644;DHT22;1838;50.742;7.158;2022-11-15T00:08:11;12.20;99.90
3644;DHT22;1838;50.742;7.158;2022-11-15T00:10:37;12.20;99.90
3644;DHT22;1838;50.742;7.158;2022-11-15T00:13:07;12.20;99.90
3644;DHT22;1838;50.742;7.158;2022-11-15T00:15:37;12.20;99.90
3644;DHT22;1838;50.742;7.158;2022-11-15T00:18:04;12.20;99.90
3644;DHT22;1838;50.742;7.158;2022-11-15T00:20:30;12.20;99.90
3644;DHT22;1838;50.742;7.158;2022-11-15T00:22:55;12.20;99.90
3644;DHT22;1838;50.742;7.158;2022-11-15T00:25:21;12.10;99.90
3644;DHT22;1838;50.742;7.158;2022-11-15T00:27:47;12.20;99.90
3644;DHT22;1838;50.742;7.158;2022-11-15T00:30:12;12.10;99.90
3644;DHT22;1838;50.742;7.158;2022-11-15T00:32:38;12.20;99.90
3644;DHT22;1838;50.742;7.158;2022-11-15T00:35:04;12.10;99.90
3644;DHT22;1838;50.742;7.158;2022-11-15T00:37:29;12.20;99.90
3644;DHT22;1838;50.742;7.158;2022-11-15T00:39:55;12.20;99.90
3644;DHT22;1838;50.742;7.158;2022-11-15T00:42:20;12.20;99.90
3644;DHT22;1838;50.742;7.158;2022-11-15T00:44:46;12.20;99.90
3644;DHT22;1838;50.742;7.158;2022-11-15T00:47:11;12.30;99.90
3644;DHT22;1838;50.742;7.158;2022-11-15T00:49:37;12.30;99.90
3644;DHT22;1838;50.742;7.158;2022-11-15T00:52:02;12.40;99.90
3644;DHT22;1838;50.742;7.158;2022-11-15T00:54:28;12.40;99.90
3644;DHT22;1838;50.742;7.158;2022-11-15T00:56:53;12.40;99.90
3644;DHT22;1838;50.742;7.158;2022-11-15T00:59:19;12.40;99.90
3644;DHT22;1838;50.742;7.158;2022-11-15T01:01:44;12.50;99.90
3644;DHT22;1838;50.742;7.158;2022-11-15T01:04:10;12.50;99.90
3644;DHT22;1838;50.742;7.158;2022-11-15T01:06:35;12.50;99.90
3644;DHT22;1838;50.742;7.158;2022-11-15T01:09:01;12.50;99.90
3644;DHT22;1838;50.742;7.158;2022-11-15T01:11:26;12.60;99.90
3644;DHT22;1838;50.742;7.158;2022-11-15T01:13:52;12.60;99.90
3644;DHT22;1838;50.742;7.158;2022-11-15T01:16:18;12.60;99.90
3644;DHT22;1838;50.742;7.158;2022-11-15T01:18:45;12.70;99.90
3644;DHT22;1838;50.742;7.158;2022-11-15T01:21:13;12.70;99.90
3644;DHT22;1838;50.742;7.158;2022-11-15T01:23:39;12.70;99.90
3644;DHT22;1838;50.742;7.158;2022-11-15T01:26:06;12.80;99.90
3644;DHT22;1838;50.742;7.158;2022-11-15T01:28:34;12.80;99.90
3644;DHT22;1838;50.742;7.158;2022-11-15T01:31:01;12.80;99.90
3644;DHT22;1838;50.742;7.158;2022-11-15T01:33:28;12.90;99.90
3644;DHT22;1838;50.742;7.158;2022-11-15T01:35:54;12.90;99.90
3644;DHT22;1838;50.742;7.158;2022-11-15T01:38:19;12.90;99.90
3644;DHT22;1838;50.742;7.158;2022-11-15T01:40:45;13.00;99.90
3644;DHT22;1838;50.742;7.158;2022-11-15T01:43:25;13.00;99.90
3644;DHT22;1838;50.742;7.158;2022-11-15T01:46:02;13.00;99.90
3644;DHT22;1838;50.742;7.158;2022-11-15T01:48:33;13.10;99.90
3644;DHT22;1838;50.742;7.158;2022-11-15T01:51:06;13.20;99.90
3644;DHT22;1838;50.742;7.158;2022-11-15T01:53:34;13.20;99.90
3644;DHT22;1838;50.742;7.158;2022-11-15T01:56:04;13.10;99.90
3644;DHT22;1838;50.742;7.158;2022-11-15T01:58:31;13.10;99.90
3644;DHT22;1838;50.742;7.158;2022-11-15T02:00:57;13.00;99.90
3644;DHT22;1838;50.742;7.158;2022-11-15T02:03:27;13.00;99.90
3644;DHT22;1838;50.742;7.158;2022-11-15T02:05:56;13.00;99.90
3644;DHT22;1838;50.742;7.158;2022-11-15T02:08:21;13.00;99.90
3644;DHT22;1838;50.742;7.158;2022-11-15T02:10:47;13.10;99.90
3644;DHT22;1838;50.742;7.158;2022-11-15T02:13:14;13.10;99.90
3644;DHT22;1838;50.742;7.158;2022-11-15T02:15:49;13.10;99.90
3644;DHT22;1838;50.742;7.158;2022-11-15T02:18:37;13.10;99.90
3644;DHT22;1838;50.742;7.158;2022-11-15T02:21:13;13.10;99.90
3644;DHT22;1838;50.742;7.158;2022-11-15T02:32:21;13.10;99.90
3644;DHT22;1838;50.742;7.158;2022-11-15T02:34:57;13.10;99.90
3644;DHT22;1838;50.742;7.158;2022-11-15T02:37:36;13.10;99.90
3644;DHT22;1838;50.742;7.158;2022-11-15T02:40:23;13.00;99.90
3644;DHT22;1838;50.742;7.158;2022-11-15T02:43:04;13.00;99.90
3644;DHT22;1838;50.742;7.158;2022-11-15T02:45:56;13.10;99.90
3644;DHT22;1838;50.742;7.158;2022-11-15T02:48:25;13.00;99.90
3644;DHT22;1838;50.742;7.158;2022-11-15T02:50:51;13.00;99.90
3644;DHT22;1838;50.742;7.158;2022-11-15T02:53:17;13.00;99.90
3644;DHT22;1838;50.742;7.158;2022-11-15T02:55:53;12.90;99.90
3644;DHT22;1838;50.742;7.158;2022-11-15T03:04:24;12.90;99.90
3644;DHT22;1838;50.742;7.158;2022-11-15T03:10:01;13.00;99.90
3644;DHT22;1838;50.742;7.158;2022-11-15T03:12:33;13.00;99.90
3644;DHT22;1838;50.742;7.158;2022-11-15T03:15:05;13.00;99.90
3644;DHT22;1838;50.742;7.158;2022-11-15T03:17:38;13.10;99.90
3644;DHT22;1838;50.742;7.158;2022-11-15T03:20:07;13.10;99.90
3644;DHT22;1838;50.742;7.158;2022-11-15T03:22:37;13.10;99.90
3644;DHT22;1838;50.742;7.158;2022-11-15T03:25:09;13.20;99.90
3644;DHT22;1838;50.742;7.158;2022-11-15T03:27:40;13.20;99.90
3644;DHT22;1838;50.742;7.158;2022-11-15T03:30:08;13.20;99.90
3644;DHT22;1838;50.742;7.158;2022-11-15T03:32:39;13.20;99.90
3644;DHT22;1838;50.742;7.158;2022-11-15T03:35:12;13.20;99.90
3644;DHT22;1838;50.742;7.158;2022-11-15T03:37:59;13.20;99.90
3644;DHT22;1838;50.742;7.158;2022-11-15T03:40:45;13.30;99.90
3644;DHT22;1838;50.742;7.158;2022-11-15T03:43:29;13.20;99.90
3644;DHT22;1838;50.742;7.158;2022-11-15T03:46:11;13.30;99.90
3644;DHT22;1838;50.742;7.158;2022-11-15T03:48:41;13.20;99.90
3644;DHT22;1838;50.742;7.158;2022-11-15T03:51:08;13.20;99.90
3644;DHT22;1838;50.742;7.158;2022-11-15T03:53:34;13.20;99.90
3644;DHT22;1838;50.742;7.158;2022-11-15T03:56:00;13.20;99.90
3644;DHT22;1838;50.742;7.158;2022-11-15T03:58:25;13.20;99.90
3644;DHT22;1838;50.742;7.158;2022-11-15T04:00:51;13.30;99.90
3644;DHT22;1838;50.742;7.158;2022-11-15T04:03:16;13.30;99.90
3644;DHT22;1838;50.742;7.158;2022-11-15T04:05:42;13.30;99.90
3644;DHT22;1838;50.742;7.158;2022-11-15T04:08:07;13.30;99.90
3644;DHT22;1838;50.742;7.158;2022-11-15T04:10:33;13.30;99.90
3644;DHT22;1838;50.742;7.158;2022-11-15T04:12:58;13.30;99.90
3644;DHT22;1838;50.742;7.158;2022-11-15T04:15:24;13.30;99.90
3644;DHT22;1838;50.742;7.158;2022-11-15T04:17:54;13.30;99.90
3644;DHT22;1838;50.742;7.158;2022-11-15T04:20:25;13.30;99.90
3644;DHT22;1838;50.742;7.158;2022-11-15T04:23:17;13.20;99.90
3644;DHT22;1838;50.742;7.158;2022-11-15T04:26:05;13.10;99.90
3644;DHT22;1838;50.742;7.158;2022-11-15T04:28:31;13.10;99.90
3644;DHT22;1838;50.742;7.158;2022-11-15T04:30:56;13.00;99.90
3644;DHT22;1838;50.742;7.158;2022-11-15T04:33:22;13.00;99.90
3644;DHT22;1838;50.742;7.158;2022-11-15T04:35:48;12.90;99.90
3644;DHT22;1838;50.742;7.158;2022-11-15T04:38:34;12.90;99.90
3644;DHT22;1838;50.742;7.158;2022-11-15T04:41:00;12.90;99.90
3644;DHT22;1838;50.742;7.158;2022-11-15T04:43:26;12.90;99.90
3644;DHT22;1838;50.742;7.158;2022-11-15T04:45:51;12.90;99.90
3644;DHT22;1838;50.742;7.158;2022-11-15T04:48:17;12.90;99.90
3644;DHT22;1838;50.742;7.158;2022-11-15T04:50:42;12.90;99.90
3644;DHT22;1838;50.742;7.158;2022-11-15T04:53:08;12.90;99.90
3644;DHT22;1838;50.742;7.158;2022-11-15T04:55:33;13.00;99.90
3644;DHT22;1838;50.742;7.158;2022-11-15T04:58:00;13.00;99.90
3644;DHT22;1838;50.742;7.158;2022-11-15T05:00:26;13.10;99.90
3644;DHT22;1838;50.742;7.158;2022-11-15T05:02:52;13.10;99.90
3644;DHT22;1838;50.742;7.158;2022-11-15T05:05:36;13.00;99.90
3644;DHT22;1838;50.742;7.158;2022-11-15T05:08:02;13.10;99.90
3644;DHT22;1838;50.742;7.158;2022-11-15T05:10:28;13.10;99.90
3644;DHT22;1838;50.742;7.158;2022-11-15T05:12:53;13.10;99.90
3644;DHT22;1838;50.742;7.158;2022-11-15T05:15:19;13.10;99.90
3644;DHT22;1838;50.742;7.158;2022-11-15T05:17:45;13.10;99.90
3644;DHT22;1838;50.742;7.158;2022-11-15T05:20:10;13.10;99.90
3644;DHT22;1838;50.742;7.158;2022-11-15T05:22:36;13.10;99.90
3644;DHT22;1838;50.742;7.158;2022-11-15T05:25:02;13.20;99.90
3644;DHT22;1838;50.742;7.158;2022-11-15T05:27:28;13.20;99.90
3644;DHT22;1838;50.742;7.158;2022-11-15T05:29:54;13.20;99.90
3644;DHT22;1838;50.742;7.158;2022-11-15T05:32:20;13.20;99.90
3644;DHT22;1838;50.742;7.158;2022-11-15T05:34:46;13.20;99.90
3644;DHT22;1838;50.742;7.158;2022-11-15T05:37:13;13.20;99.90
3644;DHT22;1838;50.742;7.158;2022-11-15T05:39:38;13.10;99.90
3644;DHT22;1838;50.742;7.158;2022-11-15T05:42:11;13.10;99.90
3644;DHT22;1838;50.742;7.158;2022-11-15T05:44:38;13.00;99.90
3644;DHT22;1838;50.742;7.158;2022-11-15T05:47:08;13.00;99.90
3644;DHT22;1838;50.742;7.158;2022-11-15T05:49:37;13.00;99.90
3644;DHT22;1838;50.742;7.158;2022-11-15T05:52:06;12.90;99.90
3644;DHT22;1838;50.742;7.158;2022-11-15T05:54:33;13.00;99.90
3644;DHT22;1838;50.742;7.158;2022-11-15T05:57:00;12.80;99.90
3644;DHT22;1838;50.742;7.158;2022-11-15T05:59:29;12.80;99.90
3644;DHT22;1838;50.742;7.158;2022-11-15T06:01:54;12.80;99.90
3644;DHT22;1838;50.742;7.158;2022-11-15T06:04:20;12.80;99.90
3644;DHT22;1838;50.742;7.158;2022-11-15T06:06:45;12.80;99.90
3644;DHT22;1838;50.742;7.158;2022-11-15T06:09:13;12.80;99.90
3644;DHT22;1838;50.742;7.158;2022-11-15T06:11:39;12.80;99.90
3644;DHT22;1838;50.742;7.158;2022-11-15T06:14:04;12.80;99.90
3644;DHT22;1838;50.742;7.158;2022-11-15T06:16:30;12.70;99.90
3644;DHT22;1838;50.742;7.158;2022-11-15T06:18:55;12.80;99.90
3644;DHT22;1838;50.742;7.158;2022-11-15T06:21:21;12.80;99.90
3644;DHT22;1838;50.742;7.158;2022-11-15T06:23:47;12.70;99.90
3644;DHT22;1838;50.742;7.158;2022-11-15T06:26:12;12.70;99.90
3644;DHT22;1838;50.742;7.158;2022-11-15T06:28:38;12.70;99.90
3644;DHT22;1838;50.742;7.158;2022-11-15T06:33:30;12.60;99.90
3644;DHT22;1838;50.742;7.158;2022-11-15T06:35:55;12.60;99.90
3644;DHT22;1838;50.742;7.158;2022-11-15T06:38:21;12.60;99.90
3644;DHT22;1838;50.742;7.158;2022-11-15T06:40:46;12.60;99.90
3644;DHT22;1838;50.742;7.158;2022-11-15T06:43:12;12.60;99.90
3644;DHT22;1838;50.742;7.158;2022-11-15T06:45:38;12.50;99.90
3644;DHT22;1838;50.742;7.158;2022-11-15T06:48:03;12.50;99.90
3644;DHT22;1838;50.742;7.158;2022-11-15T06:50:29;12.50;99.90
3644;DHT22;1838;50.742;7.158;2022-11-15T06:52:55;12.50;99.90
3644;DHT22;1838;50.742;7.158;2022-11-15T06:55:20;12.40;99.90
3644;DHT22;1838;50.742;7.158;2022-11-15T06:57:51;12.40;99.90
3644;DHT22;1838;50.742;7.158;2022-11-15T07:00:18;12.40;99.90
3644;DHT22;1838;50.742;7.158;2022-11-15T07:02:44;12.40;99.90
3644;DHT22;1838;50.742;7.158;2022-11-15T07:05:11;12.40;99.90
3644;DHT22;1838;50.742;7.158;2022-11-15T07:07:36;12.30;99.90
3644;DHT22;1838;50.742;7.158;2022-11-15T07:10:02;12.30;99.90
3644;DHT22;1838;50.742;7.158;2022-11-15T07:12:28;12.30;99.90
3644;DHT22;1838;50.742;7.158;2022-11-15T07:14:53;12.30;99.90
3644;DHT22;1838;50.742;7.158;2022-11-15T07:17:19;12.30;99.90
3644;DHT22;1838;50.742;7.158;2022-11-15T07:19:44;12.20;99.90
3644;DHT22;1838;50.742;7.158;2022-11-15T07:22:10;12.20;99.90
3644;DHT22;1838;50.742;7.158;2022-11-15T07:24:35;12.20;99.90
3644;DHT22;1838;50.742;7.158;2022-11-15T07:27:01;12.20;99.90
3644;DHT22;1838;50.742;7.158;2022-11-15T07:29:26;12.20;99.90
3644;DHT22;1838;50.742;7.158;2022-11-15T07:31:52;12.30;99.90
3644;DHT22;1838;50.742;7.158;2022-11-15T07:34:17;12.30;99.90
3644;DHT22;1838;50.742;7.158;2022-11-15T07:36:43;12.30;99.90
3644;DHT22;1838;50.742;7.158;2022-11-15T07:39:08;12.30;99.90
3644;DHT22;1838;50.742;7.158;2022-11-15T07:41:35;12.20;99.90
3644;DHT22;1838;50.742;7.158;2022-11-15T07:44:00;12.20;99.90
3644;DHT22;1838;50.742;7.158;2022-11-15T07:46:26;12.30;99.90
3644;DHT22;1838;50.742;7.158;2022-11-15T07:48:52;12.30;99.90
3644;DHT22;1838;50.742;7.158;2022-11-15T07:51:18;12.30;99.90
3644;DHT22;1838;50.742;7.158;2022-11-15T07:53:43;12.30;99.90
3644;DHT22;1838;50.742;7.158;2022-11-15T07:56:10;12.30;99.90
3644;DHT22;1838;50.742;7.158;2022-11-15T07:58:35;12.30;99.90
3644;DHT22;1838;50.742;7.158;2022-11-15T08:01:09;12.40;99.90
3644;DHT22;1838;50.742;7.158;2022-11-15T08:03:35;12.30;99.90
3644;DHT22;1838;50.742;7.158;2022-11-15T08:06:01;12.40;99.90
3644;DHT22;1838;50.742;7.158;2022-11-15T08:08:27;12.40;99.90
3644;DHT22;1838;50.742;7.158;2022-11-15T08:10:52;12.40;99.90
3644;DHT22;1838;50.742;7.158;2022-11-15T08:13:18;12.30;99.90
3644;DHT22;1838;50.742;7.158;2022-11-15T08:15:44;12.40;99.90
3644;DHT22;1838;50.742;7.158;2022-11-15T08:18:12;12.40;99.90
3644;DHT22;1838;50.742;7.158;2022-11-15T08:20:38;12.40;99.90
3644;DHT22;1838;50.742;7.158;2022-11-15T08:23:04;12.50;99.90
3644;DHT22;1838;50.742;7.158;2022-11-15T08:25:32;12.50;99.90
3644;DHT22;1838;50.742;7.158;2022-11-15T08:27:59;12.40;99.90
3644;DHT22;1838;50.742;7.158;2022-11-15T08:30:25;12.50;99.90
3644;DHT22;1838;50.742;7.158;2022-11-15T08:32:52;12.60;99.90
3644;DHT22;1838;50.742;7.158;2022-11-15T08:35:19;12.60;99.90
3644;DHT22;1838;50.742;7.158;2022-11-15T08:37:45;12.60;99.90
3644;DHT22;1838;50.742;7.158;2022-11-15T08:40:10;12.70;99.90
3644;DHT22;1838;50.742;7.158;2022-11-15T08:42:36;12.70;99.90
3644;DHT22;1838;50.742;7.158;2022-11-15T08:45:03;12.70;99.90
3644;DHT22;1838;50.742;7.158;2022-11-15T08:47:29;12.70;99.90
3644;DHT22;1838;50.742;7.158;2022-11-15T08:49:55;12.70;99.90
3644;DHT22;1838;50.742;7.158;2022-11-15T08:52:21;12.70;99.90
3644;DHT22;1838;50.742;7.158;2022-11-15T08:54:46;12.70;99.90
3644;DHT22;1838;50.742;7.158;2022-11-15T08:57:12;12.80;99.90
3644;DHT22;1838;50.742;7.158;2022-11-15T08:59:38;12.80;99.90
3644;DHT22;1838;50.742;7.158;2022-11-15T09:02:05;12.90;99.90
3644;DHT22;1838;50.742;7.158;2022-11-15T09:04:31;12.90;99.90
3644;DHT22;1838;50.742;7.158;2022-11-15T09:06:57;12.90;99.90
3644;DHT22;1838;50.742;7.158;2022-11-15T09:09:22;13.00;99.90
3644;DHT22;1838;50.742;7.158;2022-11-15T09:11:48;13.10;99.90
3644;DHT22;1838;50.742;7.158;2022-11-15T09:14:14;13.10;99.90
3644;DHT22;1838;50.742;7.158;2022-11-15T09:16:40;13.10;99.90
3644;DHT22;1838;50.742;7.158;2022-11-15T09:19:06;13.10;99.90
3644;DHT22;1838;50.742;7.158;2022-11-15T09:21:32;13.10;99.90
3644;DHT22;1838;50.742;7.158;2022-11-15T09:23:58;13.10;99.90
3644;DHT22;1838;50.742;7.158;2022-11-15T09:26:24;13.20;99.90
3644;DHT22;1838;50.742;7.158;2022-11-15T09:28:49;13.20;99.90
3644;DHT22;1838;50.742;7.158;2022-11-15T09:31:16;13.20;99.90
3644;DHT22;1838;50.742;7.158;2022-11-15T09:33:45;13.30;99.90
3644;DHT22;1838;50.742;7.158;2022-11-15T09:36:11;13.30;99.90
3644;DHT22;1838;50.742;7.158;2022-11-15T09:38:37;13.30;99.90
3644;DHT22;1838;50.742;7.158;2022-11-15T09:44:07;13.40;99.90
3644;DHT22;1838;50.742;7.158;2022-11-15T09:46:54;13.50;99.90
3644;DHT22;1838;50.742;7.158;2022-11-15T09:49:21;13.50;99.90
3644;DHT22;1838;50.742;7.158;2022-11-15T09:51:50;13.50;99.90
3644;DHT22;1838;50.742;7.158;2022-11-15T09:54:39;13.60;99.90
3644;DHT22;1838;50.742;7.158;2022-11-15T09:57:11;13.60;99.90
3644;DHT22;1838;50.742;7.158;2022-11-15T10:02:40;13.80;99.90
3644;DHT22;1838;50.742;7.158;2022-11-15T10:05:11;13.90;99.90
3644;DHT22;1838;50.742;7.158;2022-11-15T10:10:30;14.00;99.90
3644;DHT22;1838;50.742;7.158;2022-11-15T10:12:59;14.00;99.90
3644;DHT22;1838;50.742;7.158;2022-11-15T10:15:24;14.00;99.90
3644;DHT22;1838;50.742;7.158;2022-11-15T10:20:39;14.20;99.90
3644;DHT22;1838;50.742;7.158;2022-11-15T10:23:13;14.30;99.90
3644;DHT22;1838;50.742;7.158;2022-11-15T10:25:39;14.40;99.90
3644;DHT22;1838;50.742;7.158;2022-11-15T10:28:34;14.40;99.90
3644;DHT22;1838;50.742;7.158;2022-11-15T10:31:01;14.50;99.90
3644;DHT22;1838;50.742;7.158;2022-11-15T10:46:43;14.50;99.90
3644;DHT22;1838;50.742;7.158;2022-11-15T10:49:20;14.60;99.90
3644;DHT22;1838;50.742;7.158;2022-11-15T10:54:36;14.80;99.90
3644;DHT22;1838;50.742;7.158;2022-11-15T10:57:15;14.80;99.90
3644;DHT22;1838;50.742;7.158;2022-11-15T10:59:59;14.80;99.90
3644;DHT22;1838;50.742;7.158;2022-11-15T11:02:32;14.80;99.90
3644;DHT22;1838;50.742;7.158;2022-11-15T11:04:59;14.90;99.90
3644;DHT22;1838;50.742;7.158;2022-11-15T11:07:33;15.00;99.90
3644;DHT22;1838;50.742;7.158;2022-11-15T11:10:03;15.10;99.90
3644;DHT22;1838;50.742;7.158;2022-11-15T11:12:31;15.30;99.90
3644;DHT22;1838;50.742;7.158;2022-11-15T11:14:59;15.30;99.90
3644;DHT22;1838;50.742;7.158;2022-11-15T11:20:23;15.20;99.90
3644;DHT22;1838;50.742;7.158;2022-11-15T11:25:42;15.20;99.90
3644;DHT22;1838;50.742;7.158;2022-11-15T11:31:42;15.20;99.90
3644;DHT22;1838;50.742;7.158;2022-11-15T11:37:05;15.20;99.90
3644;DHT22;1838;50.742;7.158;2022-11-15T11:45:25;15.40;99.90
3644;DHT22;1838;50.742;7.158;2022-11-15T11:51:16;15.40;99.90
3644;DHT22;1838;50.742;7.158;2022-11-15T11:54:03;15.50;99.90
3644;DHT22;1838;50.742;7.158;2022-11-15T11:56:35;15.60;99.90
3644;DHT22;1838;50.742;7.158;2022-11-15T11:59:28;15.60;99.90
3644;DHT22;1838;50.742;7.158;2022-11-15T12:01:57;15.60;99.90
3644;DHT22;1838;50.742;7.158;2022-11-15T12:04:31;15.50;99.90
3644;DHT22;1838;50.742;7.158;2022-11-15T12:07:21;15.60;99.90
3644;DHT22;1838;50.742;7.158;2022-11-15T12:09:58;15.40;99.90
3644;DHT22;1838;50.742;7.158;2022-11-15T12:12:48;15.40;99.90
3644;DHT22;1838;50.742;7.158;2022-11-15T12:15:24;15.30;99.90
3644;DHT22;1838;50.742;7.158;2022-11-15T12:17:51;15.30;99.90
3644;DHT22;1838;50.742;7.158;2022-11-15T12:20:23;15.30;99.90
3644;DHT22;1838;50.742;7.158;2022-11-15T12:22:59;15.20;99.90
3644;DHT22;1838;50.742;7.158;2022-11-15T12:26:03;15.20;99.90
3644;DHT22;1838;50.742;7.158;2022-11-15T12:28:40;15.20;99.90
3644;DHT22;1838;50.742;7.158;2022-11-15T12:31:17;15.30;99.90
3644;DHT22;1838;50.742;7.158;2022-11-15T12:33:47;15.30;99.90
3644;DHT22;1838;50.742;7.158;2022-11-15T12:41:33;15.30;99.90
3644;DHT22;1838;50.742;7.158;2022-11-15T12:44:00;15.30;99.90
3644;DHT22;1838;50.742;7.158;2022-11-15T12:48:59;15.30;99.90
3644;DHT22;1838;50.742;7.158;2022-11-15T12:59:52;15.20;99.90
3644;DHT22;1838;50.742;7.158;2022-11-15T13:02:32;15.40;99.90
3644;DHT22;1838;50.742;7.158;2022-11-15T13:12:54;15.50;99.90
3644;DHT22;1838;50.742;7.158;2022-11-15T13:17:49;15.60;99.90
3644;DHT22;1838;50.742;7.158;2022-11-15T13:30:51;15.40;99.90
3644;DHT22;1838;50.742;7.158;2022-11-15T13:33:22;15.30;99.90
3644;DHT22;1838;50.742;7.158;2022-11-15T13:35:58;15.30;99.90
3644;DHT22;1838;50.742;7.158;2022-11-15T13:40:52;15.30;99.90
3644;DHT22;1838;50.742;7.158;2022-11-15T13:46:13;15.30;99.90
3644;DHT22;1838;50.742;7.158;2022-11-15T13:48:42;15.30;99.90
3644;DHT22;1838;50.742;7.158;2022-11-15T13:51:24;15.30;99.90
3644;DHT22;1838;50.742;7.158;2022-11-15T13:53:57;15.30;99.90
3644;DHT22;1838;50.742;7.158;2022-11-15T13:56:24;15.30;99.90
3644;DHT22;1838;50.742;7.158;2022-11-15T13:58:52;15.30;99.90
3644;DHT22;1838;50.742;7.158;2022-11-15T14:01:20;15.30;99.90
3644;DHT22;1838;50.742;7.158;2022-11-15T14:03:50;15.30;99.90
3644;DHT22;1838;50.742;7.158;2022-11-15T14:06:19;15.30;99.90
3644;DHT22;1838;50.742;7.158;2022-11-15T14:09:03;15.30;99.90
3644;DHT22;1838;50.742;7.158;2022-11-15T14:11:29;15.40;99.90
3644;DHT22;1838;50.742;7.158;2022-11-15T14:14:14;15.40;99.90
3644;DHT22;1838;50.742;7.158;2022-11-15T14:16:44;15.40;99.90
3644;DHT22;1838;50.742;7.158;2022-11-15T14:19:12;15.40;99.90
3644;DHT22;1838;50.742;7.158;2022-11-15T14:22:11;15.50;99.90
3644;DHT22;1838;50.742;7.158;2022-11-15T14:24:37;15.60;99.90
3644;DHT22;1838;50.742;7.158;2022-11-15T14:27:23;15.60;99.90
3644;DHT22;1838;50.742;7.158;2022-11-15T14:29:49;15.50;99.90
3644;DHT22;1838;50.742;7.158;2022-11-15T14:32:26;15.50;99.90
3644;DHT22;1838;50.742;7.158;2022-11-15T14:34:57;15.60;99.90
3644;DHT22;1838;50.742;7.158;2022-11-15T14:37:32;15.70;99.90
3644;DHT22;1838;50.742;7.158;2022-11-15T14:40:05;15.60;99.90
3644;DHT22;1838;50.742;7.158;2022-11-15T14:42:31;15.50;99.90
3644;DHT22;1838;50.742;7.158;2022-11-15T14:44:56;15.50;99.90
3644;DHT22;1838;50.742;7.158;2022-11-15T14:47:22;15.40;99.90
3644;DHT22;1838;50.742;7.158;2022-11-15T14:49:47;15.40;99.90
3644;DHT22;1838;50.742;7.158;2022-11-15T14:52:45;15.40;99.90
3644;DHT22;1838;50.742;7.158;2022-11-15T14:55:18;15.40;99.90
3644;DHT22;1838;50.742;7.158;2022-11-15T14:57:45;15.30;99.90
3644;DHT22;1838;50.742;7.158;2022-11-15T15:00:11;15.30;99.90
3644;DHT22;1838;50.742;7.158;2022-11-15T15:02:37;15.30;99.90
3644;DHT22;1838;50.742;7.158;2022-11-15T15:05:20;15.40;99.90
3644;DHT22;1838;50.742;7.158;2022-11-15T15:07:45;15.30;99.90
3644;DHT22;1838;50.742;7.158;2022-11-15T15:10:12;15.20;99.90
3644;DHT22;1838;50.742;7.158;2022-11-15T15:12:38;15.20;99.90
3644;DHT22;1838;50.742;7.158;2022-11-15T15:15:05;15.10;99.90
3644;DHT22;1838;50.742;7.158;2022-11-15T15:17:31;15.10;99.90
3644;DHT22;1838;50.742;7.158;2022-11-15T15:19:56;15.10;99.90
3644;DHT22;1838;50.742;7.158;2022-11-15T15:22:22;15.10;99.90
3644;DHT22;1838;50.742;7.158;2022-11-15T15:24:51;15.10;99.90
3644;DHT22;1838;50.742;7.158;2022-11-15T15:27:17;15.00;99.90
3644;DHT22;1838;50.742;7.158;2022-11-15T15:29:43;15.00;99.90
3644;DHT22;1838;50.742;7.158;2022-11-15T15:32:09;15.00;99.90
3644;DHT22;1838;50.742;7.158;2022-11-15T15:34:36;14.90;99.90
3644;DHT22;1838;50.742;7.158;2022-11-15T15:39:42;14.90;99.90
3644;DHT22;1838;50.742;7.158;2022-11-15T15:42:07;14.90;99.90
3644;DHT22;1838;50.742;7.158;2022-11-15T15:44:33;14.80;99.90
3644;DHT22;1838;50.742;7.158;2022-11-15T15:46:58;14.70;99.90
3644;DHT22;1838;50.742;7.158;2022-11-15T15:49:24;14.60;99.90
3644;DHT22;1838;50.742;7.158;2022-11-15T15:51:49;14.60;99.90
3644;DHT22;1838;50.742;7.158;2022-11-15T15:54:15;14.60;99.90
3644;DHT22;1838;50.742;7.158;2022-11-15T15:56:40;14.60;99.90
3644;DHT22;1838;50.742;7.158;2022-11-15T15:59:06;14.60;99.90
3644;DHT22;1838;50.742;7.158;2022-11-15T16:01:31;14.60;99.90
3644;DHT22;1838;50.742;7.158;2022-11-15T16:03:57;14.60;99.90
3644;DHT22;1838;50.742;7.158;2022-11-15T16:06:38;14.50;99.90
3644;DHT22;1838;50.742;7.158;2022-11-15T16:09:05;14.50;99.90
3644;DHT22;1838;50.742;7.158;2022-11-15T16:11:30;14.50;99.90
3644;DHT22;1838;50.742;7.158;2022-11-15T16:13:56;14.50;99.90
3644;DHT22;1838;50.742;7.158;2022-11-15T16:16:22;14.50;99.90
3644;DHT22;1838;50.742;7.158;2022-11-15T16:18:47;14.50;99.90
3644;DHT22;1838;50.742;7.158;2022-11-15T16:21:13;14.50;99.90
3644;DHT22;1838;50.742;7.158;2022-11-15T16:23:38;14.50;99.90
3644;DHT22;1838;50.742;7.158;2022-11-15T16:26:18;14.50;99.90
3644;DHT22;1838;50.742;7.158;2022-11-15T16:28:45;14.50;99.90
3644;DHT22;1838;50.742;7.158;2022-11-15T16:31:11;14.60;99.90
3644;DHT22;1838;50.742;7.158;2022-11-15T16:33:39;14.60;99.90
3644;DHT22;1838;50.742;7.158;2022-11-15T16:36:06;14.60;99.90
3644;DHT22;1838;50.742;7.158;2022-11-15T16:38:32;14.60;99.90
3644;DHT22;1838;50.742;7.158;2022-11-15T16:40:57;14.60;99.90
3644;DHT22;1838;50.742;7.158;2022-11-15T16:43:23;14.60;99.90
3644;DHT22;1838;50.742;7.158;2022-11-15T16:45:50;14.60;99.90
3644;DHT22;1838;50.742;7.158;2022-11-15T16:48:26;14.60;99.90
3644;DHT22;1838;50.742;7.158;2022-11-15T16:50:56;14.60;99.90
3644;DHT22;1838;50.742;7.158;2022-11-15T16:53:22;14.50;99.90
3644;DHT22;1838;50.742;7.158;2022-11-15T16:55:48;14.50;99.90
3644;DHT22;1838;50.742;7.158;2022-11-15T16:58:13;14.50;99.90
3644;DHT22;1838;50.742;7.158;2022-11-15T17:00:39;14.50;99.90
3644;DHT22;1838;50.742;7.158;2022-11-15T17:03:04;14.60;99.90
3644;DHT22;1838;50.742;7.158;2022-11-15T17:05:30;14.60;99.90
3644;DHT22;1838;50.742;7.158;2022-11-15T17:07:56;14.70;99.90
3644;DHT22;1838;50.742;7.158;2022-11-15T17:10:22;14.70;99.90
3644;DHT22;1838;50.742;7.158;2022-11-15T17:12:49;14.70;99.90
3644;DHT22;1838;50.742;7.158;2022-11-15T17:15:15;14.70;99.90
3644;DHT22;1838;50.742;7.158;2022-11-15T17:17:41;14.60;99.90
3644;DHT22;1838;50.742;7.158;2022-11-15T17:20:13;14.60;99.90
3644;DHT22;1838;50.742;7.158;2022-11-15T17:22:40;14.60;99.90
3644;DHT22;1838;50.742;7.158;2022-11-15T17:25:05;14.60;99.90
3644;DHT22;1838;50.742;7.158;2022-11-15T17:27:31;14.60;99.90
3644;DHT22;1838;50.742;7.158;2022-11-15T17:29:57;14.60;99.90
3644;DHT22;1838;50.742;7.158;2022-11-15T17:32:22;14.60;99.90
3644;DHT22;1838;50.742;7.158;2022-11-15T17:34:48;14.70;99.90
3644;DHT22;1838;50.742;7.158;2022-11-15T17:37:13;14.60;99.90
3644;DHT22;1838;50.742;7.158;2022-11-15T17:39:39;14.60;99.90
3644;DHT22;1838;50.742;7.158;2022-11-15T17:42:04;14.70;99.90
3644;DHT22;1838;50.742;7.158;2022-11-15T17:44:31;14.70;99.90
3644;DHT22;1838;50.742;7.158;2022-11-15T17:46:56;14.70;99.90
3644;DHT22;1838;50.742;7.158;2022-11-15T17:49:22;14.70;99.90
3644;DHT22;1838;50.742;7.158;2022-11-15T17:51:47;14.70;99.90
3644;DHT22;1838;50.742;7.158;2022-11-15T17:54:13;14.70;99.90
3644;DHT22;1838;50.742;7.158;2022-11-15T17:56:40;14.70;99.90
3644;DHT22;1838;50.742;7.158;2022-11-15T17:59:06;14.70;99.90
3644;DHT22;1838;50.742;7.158;2022-11-15T18:01:33;14.80;99.90
3644;DHT22;1838;50.742;7.158;2022-11-15T18:04:00;14.80;99.90
3644;DHT22;1838;50.742;7.158;2022-11-15T18:06:28;14.70;99.90